createdAt,value
2023-02-21T00:02:41.503Z,3.30
2023-02-21T00:07:04.037Z,5.10
2023-02-21T00:11:24.462Z,4.23
2023-02-21T00:15:46.788Z,4.93
2023-02-21T00:20:07.878Z,4.10
2023-02-21T00:24:35.382Z,5.00
2023-02-21T00:28:55.663Z,3.00
2023-02-21T00:33:16.032Z,3.77
2023-02-21T00:37:41.994Z,3.60
2023-02-21T00:42:05.434Z,3.53
2023-02-21T00:46:28.230Z,4.03
2023-02-21T00:50:48.697Z,3.07
2023-02-21T00:55:09.138Z,2.73
2023-02-21T00:59:29.465Z,3.63
2023-02-21T01:03:49.604Z,3.00
2023-02-21T01:08:09.806Z,2.87
2023-02-21T01:12:30.252Z,3.13
2023-02-21T01:16:51.566Z,4.13
2023-02-21T01:21:12.030Z,3.97
2023-02-21T01:25:33.128Z,3.67
2023-02-21T01:29:54.040Z,3.53
2023-02-21T01:34:14.716Z,3.07
2023-02-21T01:38:35.029Z,2.93
2023-02-21T01:42:55.255Z,2.40
2023-02-21T01:47:15.513Z,2.70
2023-02-21T01:51:39.416Z,2.93
2023-02-21T01:55:59.731Z,3.10
2023-02-21T02:00:24.010Z,3.57
2023-02-21T02:04:44.334Z,3.10
2023-02-21T02:09:04.592Z,3.30
2023-02-21T02:13:24.054Z,3.37
2023-02-21T02:17:58.623Z,3.57
2023-02-21T02:22:38.254Z,3.10
2023-02-21T02:27:36.523Z,2.90
2023-02-21T02:31:43.653Z,3.77
2023-02-21T02:36:15.067Z,3.57
2023-02-21T02:41:11.453Z,2.17
2023-02-21T02:45:28.810Z,2.87
2023-02-21T02:49:30.715Z,2.80
2023-02-21T02:53:32.475Z,2.97
2023-02-21T02:57:41.029Z,3.63
2023-02-21T03:01:49.231Z,3.63
2023-02-21T03:06:18.415Z,3.07
2023-02-21T03:11:10.411Z,2.53
2023-02-21T03:15:26.084Z,2.90
2023-02-21T03:19:44.416Z,3.43
2023-02-21T03:23:53.420Z,2.50
2023-02-21T03:27:55.284Z,2.97
2023-02-21T03:32:10.678Z,4.07
2023-02-21T03:36:12.505Z,3.90
2023-02-21T03:40:29.485Z,3.40
2023-02-21T03:44:31.296Z,3.77
2023-02-21T03:48:33.073Z,2.90
2023-02-21T03:52:34.993Z,3.17
2023-02-21T03:56:41.819Z,3.37
2023-02-21T04:00:44.139Z,3.33
2023-02-21T04:04:48.376Z,3.80
2023-02-21T04:08:52.164Z,4.00
2023-02-21T04:12:54.152Z,3.83
2023-02-21T04:16:55.940Z,3.60
2023-02-21T04:20:57.741Z,4.23
2023-02-21T04:24:59.630Z,4.17
2023-02-21T04:29:02.239Z,4.70
2023-02-21T04:33:04.553Z,4.33
2023-02-21T04:37:06.406Z,4.53
2023-02-21T04:41:08.235Z,4.00
2023-02-21T04:45:10.134Z,4.77
2023-02-21T04:49:15.099Z,5.00
2023-02-21T04:53:16.920Z,4.77
2023-02-21T04:57:18.669Z,4.73
2023-02-21T05:01:20.842Z,4.93
2023-02-21T05:05:22.794Z,5.27
2023-02-21T05:09:24.596Z,5.57
2023-02-21T05:13:26.912Z,5.73
2023-02-21T05:17:28.751Z,5.10
2023-02-21T05:21:36.102Z,5.37
2023-02-21T05:25:37.930Z,4.53
2023-02-21T05:29:39.717Z,4.80
2023-02-21T05:33:41.496Z,6.33
2023-02-21T05:37:43.492Z,7.30
2023-02-21T05:41:54.445Z,6.53
2023-02-21T05:45:56.433Z,6.70
2023-02-21T05:50:00.263Z,5.70
2023-02-21T05:54:02.096Z,7.37
2023-02-21T05:58:03.962Z,7.57
2023-02-21T06:02:05.732Z,5.73
2023-02-21T06:06:07.726Z,6.67
2023-02-21T06:10:09.742Z,6.57
2023-02-21T06:14:19.903Z,7.17
2023-02-21T06:18:21.618Z,6.67
2023-02-21T06:22:23.388Z,7.23
2023-02-21T06:26:25.791Z,7.30
2023-02-21T06:30:27.771Z,6.83
2023-02-21T06:34:32.683Z,6.53
2023-02-21T06:38:34.926Z,7.37
2023-02-21T06:42:37.182Z,7.80
2023-02-21T06:46:39.471Z,6.90
2023-02-21T06:50:41.225Z,6.97
2023-02-21T06:54:43.170Z,7.57
2023-02-21T06:58:45.009Z,6.03
2023-02-21T07:02:46.835Z,8.33
2023-02-21T07:06:48.787Z,8.10
2023-02-21T07:10:50.533Z,7.63
2023-02-21T07:14:52.534Z,8.30
2023-02-21T07:18:54.507Z,8.37
2023-02-21T07:22:56.464Z,9.17
2023-02-21T07:27:01.213Z,7.47
2023-02-21T07:31:03.166Z,6.67
2023-02-21T07:35:05.316Z,9.30
2023-02-21T07:39:07.217Z,8.67
2023-02-21T07:43:09.012Z,7.93
2023-02-21T07:47:10.914Z,7.93
2023-02-21T07:51:12.887Z,8.60
2023-02-21T07:55:14.892Z,8.77
2023-02-21T07:59:16.868Z,9.43
2023-02-21T08:03:18.973Z,8.13
2023-02-21T08:07:20.978Z,8.37
2023-02-21T08:11:22.814Z,9.37
2023-02-21T08:15:24.670Z,8.80
2023-02-21T08:19:26.480Z,9.83
2023-02-21T08:23:28.320Z,9.03
2023-02-21T08:27:30.104Z,8.13
2023-02-21T08:31:38.825Z,9.33
2023-02-21T08:35:40.923Z,9.47
2023-02-21T08:39:46.639Z,8.63
2023-02-21T08:43:48.411Z,9.40
2023-02-21T08:47:51.555Z,8.17
2023-02-21T08:51:55.154Z,8.60
2023-02-21T08:55:57.036Z,8.10
2023-02-21T08:59:58.825Z,7.73
2023-02-21T09:04:01.666Z,9.37
2023-02-21T09:08:05.302Z,7.07
2023-02-21T09:12:10.722Z,7.00
2023-02-21T09:16:12.566Z,8.83
2023-02-21T09:20:18.879Z,7.60
2023-02-21T09:24:25.331Z,7.87
2023-02-21T09:28:29.379Z,8.67
2023-02-21T09:32:31.310Z,7.87
2023-02-21T09:36:39.094Z,7.00
2023-02-21T09:41:02.480Z,7.87
2023-02-21T09:45:12.678Z,8.23
2023-02-21T09:49:40.735Z,6.40
2023-02-21T09:53:44.542Z,6.40
2023-02-21T09:57:46.566Z,7.13
2023-02-21T10:02:16.161Z,7.40
2023-02-21T10:06:55.276Z,6.27
2023-02-21T10:10:58.686Z,9.10
2023-02-21T10:15:39.813Z,6.33
2023-02-21T10:19:47.274Z,7.93
2023-02-21T10:23:51.145Z,7.97
2023-02-21T10:27:53.438Z,7.67
2023-02-21T10:32:03.423Z,7.17
2023-02-21T10:36:17.062Z,7.97
2023-02-21T10:40:44.167Z,6.63
2023-02-21T10:44:46.062Z,6.33
2023-02-21T10:48:51.676Z,7.10
2023-02-21T10:52:53.715Z,6.60
2023-02-21T10:56:55.708Z,5.70
2023-02-21T11:01:03.236Z,6.37
2023-02-21T11:05:22.655Z,7.13
2023-02-21T11:09:27.603Z,5.20
2023-02-21T11:13:31.089Z,6.50
2023-02-21T11:17:40.632Z,6.13
2023-02-21T11:22:07.209Z,7.27
2023-02-21T11:26:14.513Z,6.57
2023-02-21T11:30:21.506Z,6.33
2023-02-21T11:34:23.593Z,7.67
2023-02-21T11:39:02.025Z,5.30
2023-02-21T11:43:23.532Z,7.10
2023-02-21T11:48:07.834Z,7.17
2023-02-21T11:53:10.518Z,6.37
2023-02-21T11:57:39.180Z,5.70
2023-02-21T12:07:33.885Z,6.10
2023-02-21T12:12:12.283Z,7.30
2023-02-21T12:16:32.314Z,5.93
2023-02-21T12:20:55.447Z,7.50
2023-02-21T12:25:20.701Z,5.03
2023-02-21T12:29:48.361Z,5.73
2023-02-21T12:34:27.609Z,8.67
2023-02-21T12:38:57.155Z,6.83
2023-02-21T12:43:38.022Z,6.63
2023-02-21T12:48:23.816Z,7.50
2023-02-21T12:53:16.244Z,6.80
2023-02-21T12:57:53.750Z,6.60
2023-02-21T13:02:35.012Z,6.53
2023-02-21T13:07:28.262Z,7.37
2023-02-21T13:11:34.021Z,6.63
2023-02-21T13:15:36.034Z,9.80
2023-02-21T13:20:07.710Z,6.30
2023-02-21T13:24:48.863Z,5.90
2023-02-21T13:28:57.770Z,6.83
2023-02-21T13:33:00.583Z,7.07
2023-02-21T13:37:06.535Z,6.10
2023-02-21T13:41:10.776Z,6.90
2023-02-21T13:45:25.847Z,6.77
2023-02-21T13:49:51.452Z,8.60
2023-02-21T13:54:25.552Z,6.07
2023-02-21T13:58:37.531Z,6.43
2023-02-21T14:02:39.362Z,7.73
2023-02-21T14:06:42.155Z,5.33
2023-02-21T14:10:50.899Z,5.77
2023-02-21T14:14:52.746Z,6.27
2023-02-21T14:18:57.961Z,8.20
2023-02-21T14:22:59.847Z,8.47
2023-02-21T14:27:28.063Z,7.77
2023-02-21T14:32:04.815Z,6.67
2023-02-21T14:36:08.876Z,7.60
2023-02-21T14:40:33.408Z,7.00
2023-02-21T14:45:20.228Z,7.03
2023-02-21T14:50:14.666Z,7.70
2023-02-21T14:55:16.912Z,8.23
2023-02-21T14:59:58.203Z,6.17
2023-02-21T15:04:38.208Z,7.57
2023-02-21T15:08:55.105Z,6.60
2023-02-21T15:13:03.167Z,6.50
2023-02-21T15:17:19.006Z,7.47
2023-02-21T15:21:28.356Z,7.43
2023-02-21T15:25:35.838Z,6.97
2023-02-21T15:29:38.163Z,6.57
2023-02-21T15:33:42.823Z,4.90
2023-02-21T15:37:46.407Z,5.90
2023-02-21T15:41:50.861Z,7.10
2023-02-21T15:45:54.222Z,5.83
2023-02-21T15:50:10.000Z,5.13
2023-02-21T15:54:20.425Z,4.80
2023-02-21T15:58:30.211Z,5.27
2023-02-21T16:02:33.268Z,5.37
2023-02-21T16:06:35.215Z,5.00
2023-02-21T16:10:37.202Z,6.60
2023-02-21T16:14:55.574Z,6.10
2023-02-21T16:18:58.096Z,4.90
2023-02-21T16:23:27.017Z,5.97
2023-02-21T16:27:28.924Z,5.63
2023-02-21T16:31:36.984Z,7.17
2023-02-21T16:35:41.926Z,4.90
2023-02-21T16:39:43.957Z,5.30
2023-02-21T16:43:46.415Z,5.80
2023-02-21T16:47:49.997Z,5.93
2023-02-21T16:51:52.086Z,5.60
2023-02-21T16:55:56.551Z,6.93
2023-02-21T17:00:10.930Z,5.30
2023-02-21T17:04:24.286Z,7.87
2023-02-21T17:08:27.789Z,6.33
2023-02-21T17:12:29.617Z,11.43
2023-02-21T17:16:38.456Z,6.20
2023-02-21T17:20:40.255Z,6.23
2023-02-21T17:24:42.593Z,4.63
2023-02-21T17:28:45.035Z,5.50
2023-02-21T17:32:49.926Z,4.97
2023-02-21T17:37:01.186Z,5.43
2023-02-21T17:41:04.275Z,4.50
2023-02-21T17:45:06.849Z,6.00
2023-02-21T17:49:08.810Z,5.70
2023-02-21T17:53:10.964Z,4.70
2023-02-21T17:57:13.047Z,4.90
2023-02-21T18:01:18.686Z,5.43
2023-02-21T18:05:20.853Z,5.50
2023-02-21T18:09:25.846Z,7.03
2023-02-21T18:13:27.677Z,5.33
2023-02-21T18:17:31.027Z,6.03
2023-02-21T18:21:41.324Z,7.57
2023-02-21T18:25:43.258Z,4.80
2023-02-21T18:29:54.556Z,5.97
2023-02-21T18:33:56.443Z,6.80
2023-02-21T18:37:58.308Z,5.73
2023-02-21T18:42:03.022Z,5.90
2023-02-21T18:46:05.142Z,4.83
2023-02-21T18:50:07.458Z,5.40
2023-02-21T18:54:11.893Z,5.43
2023-02-21T18:58:13.901Z,5.87
2023-02-21T19:02:19.160Z,5.13
2023-02-21T19:06:22.881Z,6.13
2023-02-21T19:10:28.730Z,6.03
2023-02-21T19:14:30.898Z,6.63
2023-02-21T19:18:37.002Z,6.33
2023-02-21T19:22:41.473Z,5.23
2023-02-21T19:26:43.318Z,5.80
2023-02-21T19:30:46.633Z,6.33
2023-02-21T19:34:50.134Z,6.70
2023-02-21T19:38:52.166Z,5.87
2023-02-21T19:42:54.082Z,7.43
2023-02-21T19:51:38.605Z,5.97
2023-02-21T19:55:45.677Z,6.03
2023-02-21T19:59:52.393Z,7.93
2023-02-21T20:04:02.152Z,7.47
2023-02-21T20:08:11.870Z,6.80
2023-02-21T20:12:15.697Z,6.80
2023-02-21T20:16:20.412Z,7.10
2023-02-21T20:20:28.146Z,7.33
2023-02-21T20:24:32.588Z,8.03
2023-02-21T20:28:34.432Z,6.37
2023-02-21T20:32:36.386Z,7.87
2023-02-21T20:36:45.121Z,5.83
2023-02-21T20:40:47.717Z,5.80
2023-02-21T20:44:53.924Z,6.10
2023-02-21T20:48:59.023Z,6.33
2023-02-21T20:53:04.600Z,5.47
2023-02-21T21:01:33.400Z,6.50
2023-02-21T21:05:40.135Z,5.40
2023-02-21T21:09:45.184Z,6.83
2023-02-21T21:13:50.667Z,6.73
2023-02-21T21:17:54.683Z,5.97
2023-02-21T21:22:10.829Z,6.80
2023-02-21T21:26:16.988Z,5.90
2023-02-21T21:30:22.951Z,4.80
2023-02-21T21:34:37.446Z,5.33
2023-02-21T21:38:42.606Z,6.13
2023-02-21T21:42:52.580Z,7.13
2023-02-21T21:46:54.553Z,6.50
2023-02-21T21:50:56.443Z,4.83
2023-02-21T21:55:02.298Z,4.33
2023-02-21T21:59:04.143Z,4.30
2023-02-21T22:03:09.298Z,4.40
2023-02-21T22:07:15.186Z,4.57
2023-02-21T22:11:35.890Z,4.93
2023-02-21T22:15:37.688Z,7.13
2023-02-21T22:19:39.520Z,4.43
2023-02-21T22:23:42.229Z,5.20
2023-02-21T22:27:44.361Z,4.63
2023-02-21T22:31:46.974Z,6.07
2023-02-21T22:35:51.373Z,5.67
2023-02-21T22:39:53.193Z,6.87
2023-02-21T22:43:55.504Z,4.90
2023-02-21T22:47:57.895Z,5.70
2023-02-21T22:51:59.922Z,5.37
2023-02-21T22:56:02.809Z,4.83
2023-02-21T23:00:19.125Z,6.13
2023-02-21T23:04:27.284Z,5.60
2023-02-21T23:08:29.753Z,5.57
2023-02-21T23:12:31.600Z,6.93
2023-02-21T23:16:34.123Z,4.60
2023-02-21T23:20:35.959Z,6.53
2023-02-21T23:24:37.753Z,6.77
2023-02-21T23:28:41.717Z,5.40
2023-02-21T23:32:44.911Z,6.60
2023-02-21T23:36:46.789Z,5.77
2023-02-21T23:40:56.186Z,5.97
2023-02-21T23:44:58.128Z,4.90
2023-02-21T23:49:02.338Z,5.07
2023-02-21T23:53:05.263Z,4.47
2023-02-21T23:57:07.663Z,6.33
